Weather at Lund Airport [CLOSED]

Public forecast

Using degrees Celsius for public forecast. Weather courtesy of forecast.io.

Closest aviation weather report (METAR) to Lund Airport

Closest report is Malmö Sturup Airport, 10.5 nm (19.5 km) SSE. Retrieved 2021/05/08 19:50 UTC (19 minutes ago):

ESMS 081950Z 14007KT CAVOK 06/02 Q1014

Closest aviation forecast (TAF) to Lund Airport

Closest forecast is Malmö Sturup Airport, 10.5 nm (19.5 km) SSE. Retrieved 2021/05/08 18:00 UTC (2 hours ago):

TAF ESMS 081709Z 0818/0918 21010KT 9999 SCT025 BECMG 0818/0821 15010KT BECMG 0902/0904 15015G25KT 4000 RADZ BKN012 TEMPO 0904/0906 6000 -RA OVC020 BECMG 0906/0908 18012KT CAVOK